createdAt,value
2022-11-15T00:01:31.102Z,9.86
2022-11-15T00:04:17.028Z,9.94
2022-11-15T00:07:01.927Z,9.92
2022-11-15T00:09:47.100Z,9.84
2022-11-15T00:12:32.271Z,9.76
2022-11-15T00:15:17.299Z,9.76
2022-11-15T00:18:03.171Z,9.75
2022-11-15T00:20:48.354Z,9.76
2022-11-15T00:23:34.966Z,9.83
2022-11-15T00:26:19.826Z,9.80
2022-11-15T00:29:05.109Z,9.81
2022-11-15T00:31:50.393Z,9.81
2022-11-15T00:34:35.555Z,9.88
2022-11-15T00:37:20.718Z,9.88
2022-11-15T00:40:06.603Z,9.84
2022-11-15T00:42:51.994Z,9.84
2022-11-15T00:45:37.209Z,9.81
2022-11-15T00:48:22.415Z,9.76
2022-11-15T00:51:07.802Z,9.68
2022-11-15T00:53:52.938Z,9.59
2022-11-15T00:56:38.158Z,9.56
2022-11-15T00:59:23.188Z,9.55
2022-11-15T01:02:08.425Z,9.56
2022-11-15T01:04:53.676Z,9.55
2022-11-15T01:07:38.973Z,9.56
2022-11-15T01:10:24.829Z,9.63
2022-11-15T01:13:10.115Z,9.71
2022-11-15T01:15:55.362Z,9.76
2022-11-15T01:18:41.109Z,9.83
2022-11-15T01:21:26.639Z,9.89
2022-11-15T01:24:13.605Z,9.95
2022-11-15T01:26:58.784Z,10.00
2022-11-15T01:29:44.046Z,10.03
2022-11-15T01:32:29.401Z,10.06
2022-11-15T01:35:14.719Z,10.11
2022-11-15T01:38:00.022Z,10.11
2022-11-15T01:40:45.187Z,10.11
2022-11-15T01:43:33.978Z,10.11
2022-11-15T01:46:27.185Z,10.15
2022-11-15T01:49:18.709Z,10.18
2022-11-15T01:52:07.359Z,10.16
2022-11-15T01:55:00.095Z,10.15
2022-11-15T01:57:48.856Z,10.11
2022-11-15T02:00:34.560Z,10.10
2022-11-15T02:03:21.327Z,10.11
2022-11-15T02:06:06.476Z,10.14
2022-11-15T02:08:52.587Z,10.19
2022-11-15T02:11:38.131Z,10.16
2022-11-15T02:14:26.436Z,10.15
2022-11-15T02:17:23.635Z,10.17
2022-11-15T02:20:26.880Z,10.20
2022-11-15T02:23:34.616Z,10.22
2022-11-15T02:26:29.064Z,10.23
2022-11-15T02:29:24.315Z,10.25
2022-11-15T02:32:28.420Z,10.22
2022-11-15T02:35:36.402Z,10.16
2022-11-15T02:38:45.739Z,10.13
2022-11-15T02:41:36.436Z,10.08
2022-11-15T02:44:32.058Z,10.11
2022-11-15T02:47:18.793Z,10.14
2022-11-15T02:50:10.883Z,10.20
2022-11-15T02:52:56.488Z,10.20
2022-11-15T02:55:48.927Z,10.22
2022-11-15T02:58:58.680Z,10.25
2022-11-15T03:02:15.053Z,10.26
2022-11-15T03:05:26.488Z,10.27
2022-11-15T03:08:24.555Z,10.23
2022-11-15T03:11:13.705Z,10.28
2022-11-15T03:14:21.287Z,10.29
2022-11-15T03:17:29.418Z,10.25
2022-11-15T03:20:18.192Z,10.24
2022-11-15T03:23:08.948Z,10.15
2022-11-15T03:25:56.327Z,10.07
2022-11-15T03:28:59.771Z,10.06
2022-11-15T03:31:51.189Z,10.05
2022-11-15T03:34:46.310Z,10.09
2022-11-15T03:37:37.291Z,10.19
2022-11-15T03:40:30.354Z,10.17
2022-11-15T03:43:29.880Z,10.18
2022-11-15T03:46:20.846Z,10.10
2022-11-15T03:49:20.171Z,10.04
2022-11-15T03:52:06.170Z,9.95
2022-11-15T03:54:57.049Z,9.89
2022-11-15T03:57:42.043Z,9.75
2022-11-15T04:00:28.723Z,9.61
2022-11-15T04:03:13.607Z,9.43
2022-11-15T04:05:58.942Z,9.35
2022-11-15T04:08:44.249Z,9.28
2022-11-15T04:11:29.587Z,9.23
2022-11-15T04:14:14.899Z,9.09
2022-11-15T04:17:00.048Z,9.00
2022-11-15T04:20:17.436Z,8.90
2022-11-15T04:23:24.462Z,8.88
2022-11-15T04:26:14.006Z,8.88
2022-11-15T04:29:17.723Z,8.85
2022-11-15T04:32:05.107Z,8.87
2022-11-15T04:34:50.449Z,8.77
2022-11-15T04:37:35.751Z,8.76
2022-11-15T04:40:21.142Z,8.74
2022-11-15T04:43:06.556Z,8.67
2022-11-15T04:45:51.887Z,8.73
2022-11-15T04:48:36.803Z,8.72
2022-11-15T04:51:22.125Z,8.66
2022-11-15T04:54:07.671Z,8.63
2022-11-15T04:56:52.990Z,8.59
2022-11-15T04:59:38.300Z,8.59
2022-11-15T05:02:23.719Z,8.55
2022-11-15T05:05:09.186Z,8.63
2022-11-15T05:07:54.516Z,8.63
2022-11-15T05:10:39.730Z,8.69
2022-11-15T05:13:25.154Z,8.77
2022-11-15T05:16:10.097Z,8.84
2022-11-15T05:18:55.981Z,8.93
2022-11-15T05:21:41.489Z,8.99
2022-11-15T05:24:26.596Z,9.01
2022-11-15T05:27:11.822Z,8.99
2022-11-15T05:29:56.847Z,8.93
2022-11-15T05:32:41.994Z,8.89
2022-11-15T05:35:38.005Z,8.77
2022-11-15T05:38:24.523Z,8.67
2022-11-15T05:41:09.842Z,8.59
2022-11-15T05:43:55.075Z,8.59
2022-11-15T05:46:41.703Z,8.57
2022-11-15T05:49:32.647Z,8.57
2022-11-15T05:52:22.903Z,8.57
2022-11-15T05:55:09.682Z,8.55
2022-11-15T05:57:54.663Z,8.67
2022-11-15T06:00:40.300Z,8.75
2022-11-15T06:03:25.553Z,8.82
2022-11-15T06:06:16.118Z,8.90
2022-11-15T06:09:01.858Z,8.99
2022-11-15T06:11:47.043Z,9.06
2022-11-15T06:14:32.305Z,9.11
2022-11-15T06:17:17.584Z,9.11
2022-11-15T06:20:02.779Z,9.15
2022-11-15T06:22:47.922Z,9.18
2022-11-15T06:25:32.816Z,9.13
2022-11-15T06:28:17.956Z,9.06
2022-11-15T06:31:07.895Z,9.02
2022-11-15T06:33:53.288Z,8.97
2022-11-15T06:36:38.793Z,8.99
2022-11-15T06:39:23.869Z,9.02
2022-11-15T06:42:09.794Z,9.05
2022-11-15T06:44:55.187Z,9.04
2022-11-15T06:47:47.761Z,8.98
2022-11-15T06:50:33.128Z,9.02
2022-11-15T06:53:18.496Z,9.00
2022-11-15T06:56:06.294Z,9.09
2022-11-15T06:58:51.527Z,9.19
2022-11-15T07:01:36.597Z,9.29
2022-11-15T07:04:22.119Z,9.37
2022-11-15T07:07:07.597Z,9.38
2022-11-15T07:09:52.801Z,9.41
2022-11-15T07:12:38.097Z,9.44
2022-11-15T07:15:27.334Z,9.47
2022-11-15T07:18:12.539Z,9.52
2022-11-15T07:21:02.186Z,9.55
2022-11-15T07:23:47.563Z,9.56
2022-11-15T07:26:33.352Z,9.62
2022-11-15T07:29:18.855Z,9.64
2022-11-15T07:32:03.917Z,9.67
2022-11-15T07:34:49.139Z,9.68
2022-11-15T07:37:34.426Z,9.71
2022-11-15T07:40:19.708Z,9.76
2022-11-15T07:43:06.742Z,9.83
2022-11-15T07:45:57.541Z,9.87
2022-11-15T07:48:45.410Z,9.93
2022-11-15T07:51:31.052Z,10.13
2022-11-15T07:54:16.491Z,10.25
2022-11-15T07:57:07.004Z,10.31
2022-11-15T07:59:52.987Z,10.34
2022-11-15T08:02:38.477Z,10.33
2022-11-15T08:05:23.499Z,10.34
2022-11-15T08:08:10.757Z,10.35
2022-11-15T08:10:59.032Z,10.44
2022-11-15T08:13:44.464Z,10.40
2022-11-15T08:16:29.551Z,10.45
2022-11-15T08:19:15.097Z,10.48
2022-11-15T08:22:00.243Z,10.52
2022-11-15T08:24:45.618Z,10.53
2022-11-15T08:27:30.728Z,10.59
2022-11-15T08:30:17.085Z,10.61
2022-11-15T08:33:02.479Z,10.66
2022-11-15T08:35:47.808Z,10.73
2022-11-15T08:38:33.809Z,10.69
2022-11-15T08:41:37.840Z,10.73
2022-11-15T08:44:23.388Z,10.79
2022-11-15T08:47:11.743Z,10.73
2022-11-15T08:49:56.569Z,10.66
2022-11-15T08:52:41.834Z,10.66
2022-11-15T08:55:27.159Z,10.63
2022-11-15T08:58:12.522Z,10.75
2022-11-15T09:00:57.884Z,10.83
2022-11-15T09:03:43.068Z,10.82
2022-11-15T09:06:28.476Z,10.84
2022-11-15T09:09:13.782Z,10.97
2022-11-15T09:12:02.457Z,10.98
2022-11-15T09:14:48.006Z,10.95
2022-11-15T09:17:33.098Z,11.00
2022-11-15T09:20:18.202Z,11.02
2022-11-15T09:23:05.186Z,11.01
2022-11-15T09:25:50.336Z,11.12
2022-11-15T09:28:37.367Z,11.24
2022-11-15T09:31:22.518Z,11.31
2022-11-15T09:34:07.577Z,11.48
2022-11-15T09:36:52.911Z,11.35
2022-11-15T09:39:38.066Z,11.30
2022-11-15T09:42:31.495Z,11.21
2022-11-15T09:45:43.832Z,11.16
2022-11-15T09:49:02.636Z,11.03
2022-11-15T09:51:54.174Z,10.84
2022-11-15T09:54:52.302Z,10.84
2022-11-15T09:57:23.693Z,10.93
2022-11-15T10:00:31.348Z,10.96
2022-11-15T10:03:03.971Z,11.08
2022-11-15T10:05:40.480Z,11.10
2022-11-15T10:08:36.640Z,11.13
2022-11-15T10:11:36.023Z,11.22
2022-11-15T10:14:03.727Z,11.22
2022-11-15T10:17:07.546Z,11.21
2022-11-15T10:20:07.756Z,11.28
2022-11-15T10:22:45.854Z,11.42
2022-11-15T10:25:18.448Z,11.52
2022-11-15T10:27:52.211Z,11.82
2022-11-15T10:30:19.653Z,11.89
2022-11-15T10:32:48.468Z,12.14
2022-11-15T10:35:32.999Z,12.44
2022-11-15T10:38:11.604Z,12.55
2022-11-15T10:40:40.419Z,12.82
2022-11-15T10:43:14.739Z,13.09
2022-11-15T10:45:42.107Z,13.20
2022-11-15T10:48:29.344Z,13.42
2022-11-15T10:50:57.264Z,13.67
2022-11-15T10:53:34.461Z,13.55
2022-11-15T10:56:07.894Z,13.58
2022-11-15T10:58:37.183Z,13.55
2022-11-15T11:01:16.911Z,13.24
2022-11-15T11:03:45.979Z,13.16
2022-11-15T11:06:16.482Z,13.51
2022-11-15T11:09:03.543Z,13.40
2022-11-15T11:11:49.232Z,13.51
2022-11-15T11:14:28.673Z,13.51
2022-11-15T11:17:07.277Z,13.47
2022-11-15T11:19:58.722Z,13.62
2022-11-15T11:23:02.796Z,13.72
2022-11-15T11:26:12.551Z,13.66
2022-11-15T11:29:07.556Z,13.21
2022-11-15T11:31:45.078Z,13.02
2022-11-15T11:34:56.504Z,12.91
2022-11-15T11:37:32.341Z,12.62
2022-11-15T11:40:16.904Z,12.39
2022-11-15T11:43:20.927Z,12.31
2022-11-15T11:46:15.872Z,12.21
2022-11-15T11:48:52.776Z,12.25
2022-11-15T11:51:32.231Z,12.35
2022-11-15T11:54:26.832Z,12.50
2022-11-15T11:56:55.007Z,12.52
2022-11-15T11:59:34.868Z,12.62
2022-11-15T12:02:24.814Z,12.58
2022-11-15T12:04:58.668Z,12.66
2022-11-15T12:07:29.122Z,12.62
2022-11-15T12:10:21.774Z,12.64
2022-11-15T12:12:54.200Z,12.66
2022-11-15T12:15:28.484Z,12.57
2022-11-15T12:17:57.918Z,12.49
2022-11-15T12:20:27.770Z,12.49
2022-11-15T12:23:00.188Z,12.40
2022-11-15T12:25:42.361Z,12.40
2022-11-15T12:28:15.133Z,12.46
2022-11-15T12:30:47.895Z,12.54
2022-11-15T12:33:50.754Z,12.59
2022-11-15T12:36:23.288Z,12.57
2022-11-15T12:38:52.531Z,12.65
2022-11-15T12:41:20.453Z,12.76
2022-11-15T12:43:49.029Z,12.86
2022-11-15T12:46:42.290Z,12.94
2022-11-15T12:49:31.969Z,12.97
2022-11-15T12:51:58.560Z,12.97
2022-11-15T12:54:25.118Z,12.95
2022-11-15T12:57:04.016Z,12.95
2022-11-15T12:59:51.796Z,12.86
2022-11-15T13:02:22.688Z,12.80
2022-11-15T13:04:50.672Z,12.87
2022-11-15T13:07:35.856Z,12.88
2022-11-15T13:10:31.227Z,12.90
2022-11-15T13:13:08.276Z,12.81
2022-11-15T13:15:55.393Z,12.81
2022-11-15T13:18:24.917Z,12.93
2022-11-15T13:20:51.586Z,12.94
2022-11-15T13:23:18.320Z,12.73
2022-11-15T13:26:11.366Z,12.60
2022-11-15T13:28:46.283Z,12.56
2022-11-15T13:31:26.570Z,12.61
2022-11-15T13:33:56.007Z,12.66
2022-11-15T13:36:35.093Z,12.62
2022-11-15T13:39:26.478Z,12.62
2022-11-15T13:41:53.759Z,12.56
2022-11-15T13:44:23.596Z,12.50
2022-11-15T13:47:02.983Z,12.57
2022-11-15T13:49:33.883Z,12.51
2022-11-15T13:52:05.673Z,12.49
2022-11-15T13:54:45.804Z,12.56
2022-11-15T13:57:21.849Z,12.51
2022-11-15T13:59:52.883Z,12.58
2022-11-15T14:02:27.865Z,12.49
2022-11-15T14:05:20.820Z,12.45
2022-11-15T14:08:22.899Z,12.41
2022-11-15T14:10:49.700Z,12.30
2022-11-15T14:13:31.296Z,12.25
2022-11-15T14:16:19.335Z,12.14
2022-11-15T14:18:46.366Z,12.07
2022-11-15T14:21:13.372Z,12.05
2022-11-15T14:23:40.281Z,12.00
2022-11-15T14:26:11.873Z,11.92
2022-11-15T14:28:41.475Z,12.04
2022-11-15T14:31:14.158Z,12.16
2022-11-15T14:33:42.153Z,12.33
2022-11-15T14:36:20.907Z,12.40
2022-11-15T14:38:48.471Z,12.42
2022-11-15T14:41:27.324Z,12.30
2022-11-15T14:43:54.657Z,12.31
2022-11-15T14:46:21.283Z,12.26
2022-11-15T14:48:47.889Z,12.14
2022-11-15T14:51:18.074Z,11.93
2022-11-15T14:53:46.226Z,11.80
2022-11-15T14:56:13.303Z,11.68
2022-11-15T14:58:40.160Z,11.64
2022-11-15T15:01:21.283Z,11.55
2022-11-15T15:03:47.967Z,11.42
2022-11-15T15:06:17.920Z,11.30
2022-11-15T15:08:45.942Z,11.17
2022-11-15T15:11:24.561Z,11.11
2022-11-15T15:13:52.264Z,11.03
2022-11-15T15:16:19.212Z,10.98
2022-11-15T15:18:45.971Z,10.88
2022-11-15T15:21:33.756Z,10.81
2022-11-15T15:24:02.899Z,10.71
2022-11-15T15:26:29.489Z,10.69
2022-11-15T15:28:56.092Z,10.66
2022-11-15T15:31:22.720Z,10.67
2022-11-15T15:33:49.406Z,10.64
2022-11-15T15:36:19.503Z,10.63
2022-11-15T15:38:47.658Z,10.58
2022-11-15T15:41:17.836Z,10.57
2022-11-15T15:43:44.924Z,10.51
2022-11-15T15:46:17.055Z,10.52
2022-11-15T15:48:43.967Z,10.48
2022-11-15T15:51:17.022Z,10.49
2022-11-15T15:53:46.985Z,10.48
2022-11-15T15:56:13.600Z,10.46
2022-11-15T15:58:40.179Z,10.41
2022-11-15T16:01:06.896Z,10.41
2022-11-15T16:03:33.888Z,10.39
2022-11-15T16:06:00.570Z,10.39
2022-11-15T16:08:42.448Z,10.38
2022-11-15T16:11:17.581Z,10.39
2022-11-15T16:13:44.387Z,10.41
2022-11-15T16:16:14.314Z,10.41
2022-11-15T16:18:40.937Z,10.45
2022-11-15T16:21:09.480Z,10.46
2022-11-15T16:23:36.138Z,10.46
2022-11-15T16:26:04.045Z,10.51
2022-11-15T16:28:33.906Z,10.57
2022-11-15T16:31:03.020Z,10.56
2022-11-15T16:33:29.883Z,10.56
2022-11-15T16:35:56.682Z,10.59
2022-11-15T16:38:23.335Z,10.63
2022-11-15T16:40:49.957Z,10.66
2022-11-15T16:43:16.971Z,10.67
2022-11-15T16:45:43.843Z,10.66
2022-11-15T16:48:26.942Z,10.67
2022-11-15T16:50:58.519Z,10.65
2022-11-15T16:53:26.523Z,10.66
2022-11-15T16:55:54.329Z,10.68
2022-11-15T16:58:21.196Z,10.67
2022-11-15T17:00:52.288Z,10.68
2022-11-15T17:03:19.604Z,10.71
2022-11-15T17:05:46.225Z,10.72
2022-11-15T17:08:12.841Z,10.70
2022-11-15T17:10:44.214Z,10.75
2022-11-15T17:13:12.982Z,10.75
2022-11-15T17:15:39.795Z,10.77
2022-11-15T17:18:06.626Z,10.76
2022-11-15T17:20:33.675Z,10.77
2022-11-15T17:23:00.256Z,10.76
2022-11-15T17:25:26.854Z,10.80
2022-11-15T17:27:53.435Z,10.81
2022-11-15T17:30:20.395Z,10.82
2022-11-15T17:32:49.921Z,10.82
2022-11-15T17:35:16.591Z,10.83
2022-11-15T17:37:44.315Z,10.84
2022-11-15T17:40:11.404Z,10.85
2022-11-15T17:42:41.155Z,10.84
2022-11-15T17:45:10.410Z,10.82
2022-11-15T17:47:37.744Z,10.83
2022-11-15T17:50:04.994Z,10.83
2022-11-15T17:52:31.663Z,10.84
2022-11-15T17:54:58.271Z,10.88
2022-11-15T17:57:24.871Z,10.85
2022-11-15T17:59:51.517Z,10.84
2022-11-15T18:02:19.410Z,10.81
2022-11-15T18:04:46.011Z,10.80
2022-11-15T18:07:14.119Z,10.76
2022-11-15T18:09:44.116Z,10.75
2022-11-15T18:12:11.546Z,10.71
2022-11-15T18:14:38.175Z,10.64
2022-11-15T18:17:04.727Z,10.62
2022-11-15T18:19:31.384Z,10.59
2022-11-15T18:21:58.890Z,10.57
2022-11-15T18:24:32.471Z,10.59
2022-11-15T18:27:00.495Z,10.54
2022-11-15T18:29:27.874Z,10.55
2022-11-15T18:31:55.785Z,10.53
2022-11-15T18:34:31.903Z,10.52
2022-11-15T18:36:58.749Z,10.51
2022-11-15T18:39:25.350Z,10.52
2022-11-15T18:41:52.301Z,10.56
2022-11-15T18:44:18.947Z,10.57
2022-11-15T18:46:45.908Z,10.56
2022-11-15T18:49:14.622Z,10.58
2022-11-15T18:51:42.168Z,10.57
2022-11-15T18:54:11.186Z,10.57
2022-11-15T18:56:38.491Z,10.57
2022-11-15T18:59:06.199Z,10.54
2022-11-15T19:01:37.564Z,10.52
2022-11-15T19:04:11.439Z,10.50
2022-11-15T19:06:40.140Z,10.48
2022-11-15T19:09:08.597Z,10.40
2022-11-15T19:11:37.524Z,10.37
2022-11-15T19:14:09.544Z,10.36
2022-11-15T19:16:41.842Z,10.34
2022-11-15T19:19:13.729Z,10.33
2022-11-15T19:21:42.699Z,10.37
2022-11-15T19:26:56.599Z,10.37
2022-11-15T19:29:27.791Z,10.38
2022-11-15T19:31:56.472Z,10.38
2022-11-15T19:34:32.625Z,10.36
2022-11-15T19:37:01.383Z,10.34
2022-11-15T19:39:31.317Z,10.34
2022-11-15T19:42:00.356Z,10.34
2022-11-15T19:44:28.415Z,10.35
2022-11-15T19:46:55.031Z,10.31
2022-11-15T19:49:22.255Z,10.28
2022-11-15T19:51:49.154Z,10.28
2022-11-15T19:54:17.178Z,10.29
2022-11-15T19:56:43.910Z,10.30
2022-11-15T19:59:11.879Z,10.28
2022-11-15T20:01:39.387Z,10.32
2022-11-15T20:04:07.934Z,10.35
2022-11-15T20:06:37.729Z,10.34
2022-11-15T20:09:04.371Z,10.31
2022-11-15T20:11:31.062Z,10.31
2022-11-15T20:14:04.956Z,10.37
2022-11-15T20:16:31.647Z,10.36
2022-11-15T20:18:58.367Z,10.36
2022-11-15T20:21:25.298Z,10.33
2022-11-15T20:23:52.405Z,10.35
2022-11-15T20:26:20.478Z,10.33
2022-11-15T20:28:48.237Z,10.33
2022-11-15T20:31:16.027Z,10.33
2022-11-15T20:33:42.715Z,10.33
2022-11-15T20:36:14.464Z,10.33
2022-11-15T20:38:41.768Z,10.33
2022-11-15T20:41:10.874Z,10.31
2022-11-15T20:43:38.283Z,10.29
2022-11-15T20:46:05.694Z,10.29
2022-11-15T20:48:33.210Z,10.24
2022-11-15T20:51:27.103Z,10.26
2022-11-15T20:53:54.307Z,10.25
2022-11-15T20:56:22.321Z,10.25
2022-11-15T20:58:54.949Z,10.23
2022-11-15T21:01:24.872Z,10.23
2022-11-15T21:03:56.352Z,10.23
2022-11-15T21:06:24.954Z,10.22
2022-11-15T21:09:11.310Z,10.26
2022-11-15T21:11:56.576Z,10.24
2022-11-15T21:14:23.333Z,10.25
2022-11-15T21:16:49.972Z,10.24
2022-11-15T21:19:16.930Z,10.22
2022-11-15T21:21:43.559Z,10.19
2022-11-15T21:24:10.339Z,10.18
2022-11-15T21:26:37.629Z,10.17
2022-11-15T21:29:05.164Z,10.15
2022-11-15T21:31:32.491Z,10.14
2022-11-15T21:34:02.387Z,10.13
2022-11-15T21:36:29.238Z,10.09
2022-11-15T21:38:55.845Z,10.06
2022-11-15T21:41:22.462Z,10.07
2022-11-15T21:43:49.120Z,10.04
2022-11-15T21:46:15.691Z,9.99
2022-11-15T21:48:42.458Z,10.01
2022-11-15T21:51:11.570Z,10.02
2022-11-15T21:53:38.313Z,10.00
2022-11-15T21:56:05.299Z,9.99
2022-11-15T21:58:32.284Z,9.99
2022-11-15T22:01:17.934Z,9.96
2022-11-15T22:03:44.915Z,9.99
2022-11-15T22:06:17.262Z,9.99
2022-11-15T22:08:45.621Z,9.97
2022-11-15T22:11:12.926Z,9.99
2022-11-15T22:13:39.571Z,9.98
2022-11-15T22:16:07.136Z,10.01
2022-11-15T22:18:34.044Z,9.99
2022-11-15T22:21:03.279Z,9.98
2022-11-15T22:23:31.702Z,9.97
2022-11-15T22:25:58.687Z,9.99
2022-11-15T22:28:25.758Z,9.95
2022-11-15T22:30:54.164Z,9.97
2022-11-15T22:33:23.895Z,9.96
2022-11-15T22:35:50.832Z,9.96
2022-11-15T22:38:17.957Z,9.98
2022-11-15T22:40:45.080Z,9.99
2022-11-15T22:43:13.266Z,9.99
2022-11-15T22:45:57.789Z,10.01
2022-11-15T22:48:27.365Z,10.02
2022-11-15T22:50:54.152Z,10.04
2022-11-15T22:53:21.753Z,10.04
2022-11-15T22:55:53.137Z,10.03
2022-11-15T22:58:21.635Z,10.00
2022-11-15T23:00:53.207Z,10.01
2022-11-15T23:03:20.898Z,9.98
2022-11-15T23:05:49.381Z,9.97
2022-11-15T23:08:16.651Z,9.98
2022-11-15T23:11:02.306Z,9.99
2022-11-15T23:13:30.998Z,10.01
2022-11-15T23:16:34.433Z,9.99
2022-11-15T23:19:07.608Z,10.02
2022-11-15T23:22:04.105Z,10.02
2022-11-15T23:24:32.055Z,10.03
2022-11-15T23:27:01.841Z,10.02
2022-11-15T23:29:29.198Z,9.99
2022-11-15T23:32:15.047Z,9.99
2022-11-15T23:34:44.405Z,10.02
2022-11-15T23:37:13.253Z,10.01
2022-11-15T23:39:40.086Z,10.00
2022-11-15T23:42:09.407Z,9.99
2022-11-15T23:44:37.067Z,9.99
2022-11-15T23:47:03.709Z,10.00
2022-11-15T23:49:30.364Z,10.01
2022-11-15T23:51:56.976Z,10.03
2022-11-15T23:54:23.558Z,10.00
2022-11-15T23:56:50.162Z,10.01
2022-11-15T23:59:16.876Z,9.98
